createdAt,value
2023-02-03T00:01:46.198Z,101746.50
2023-02-03T00:04:13.360Z,101749.69
2023-02-03T00:06:40.251Z,101735.44
2023-02-03T00:09:06.649Z,101731.84
2023-02-03T00:11:33.056Z,101723.97
2023-02-03T00:13:59.585Z,101721.84
2023-02-03T00:16:25.992Z,101712.91
2023-02-03T00:18:52.396Z,101715.03
2023-02-03T00:21:18.813Z,101696.72
2023-02-03T00:23:45.301Z,101688.44
2023-02-03T00:26:14.527Z,101681.00
2023-02-03T00:28:42.505Z,101667.81
2023-02-03T00:31:17.508Z,101658.88
2023-02-03T00:33:45.867Z,101655.91
2023-02-03T00:36:12.739Z,101657.19
2023-02-03T00:38:39.400Z,101653.34
2023-02-03T00:41:06.674Z,101636.28
2023-02-03T00:43:33.097Z,101623.97
2023-02-03T00:45:59.533Z,101622.69
2023-02-03T00:48:25.966Z,101621.41
2023-02-03T00:50:52.383Z,101627.38
2023-02-03T00:53:18.804Z,101623.09
2023-02-03T00:55:48.294Z,101616.28
2023-02-03T00:58:14.746Z,101616.88
2023-02-03T01:00:44.528Z,101606.50
2023-02-03T01:03:10.984Z,101601.81
2023-02-03T01:05:37.432Z,101599.72
2023-02-03T01:08:04.323Z,101585.44
2023-02-03T01:10:31.543Z,101587.34
2023-02-03T01:12:57.998Z,101596.28
2023-02-03T01:15:27.223Z,101590.31
2023-02-03T01:17:53.601Z,101576.88
2023-02-03T01:20:21.511Z,101571.53
2023-02-03T01:22:48.493Z,101575.38
2023-02-03T01:25:14.988Z,101572.00
2023-02-03T01:27:41.446Z,101573.91
2023-02-03T01:30:08.317Z,101569.00
2023-02-03T01:32:34.771Z,101552.22
2023-02-03T01:35:01.210Z,101539.41
2023-02-03T01:37:27.596Z,101530.94
2023-02-03T01:39:54.166Z,101527.56
2023-02-03T01:42:20.588Z,101528.00
2023-02-03T01:44:51.198Z,101517.97
2023-02-03T01:47:27.072Z,101502.41
2023-02-03T01:50:15.633Z,101500.50
2023-02-03T01:52:47.357Z,101488.19
2023-02-03T01:55:20.088Z,101482.22
2023-02-03T01:58:01.061Z,101484.97
2023-02-03T02:00:28.166Z,101481.56
2023-02-03T02:02:59.252Z,101472.44
2023-02-03T02:05:31.613Z,101464.38
2023-02-03T02:08:00.735Z,101454.34
2023-02-03T02:10:30.191Z,101455.84
2023-02-03T02:12:57.667Z,101439.25
2023-02-03T02:15:37.096Z,101432.03
2023-02-03T02:18:13.039Z,101423.53
2023-02-03T02:21:16.855Z,101409.91
2023-02-03T02:24:17.362Z,101391.56
2023-02-03T02:27:22.594Z,101386.34
2023-02-03T02:30:00.763Z,101375.28
2023-02-03T02:33:21.695Z,101368.84
2023-02-03T02:35:58.766Z,101358.88
2023-02-03T02:38:45.995Z,101347.81
2023-02-03T02:41:19.066Z,101336.31
2023-02-03T02:44:03.597Z,101333.09
2023-02-03T02:46:43.400Z,101318.81
2023-02-03T02:49:16.627Z,101323.56
2023-02-03T02:56:15.757Z,101313.09
2023-02-03T02:58:47.194Z,101302.47
2023-02-03T03:01:14.181Z,101288.66
2023-02-03T03:03:56.674Z,101281.63
2023-02-03T03:06:32.994Z,101282.47
2023-02-03T03:09:05.668Z,101279.88
2023-02-03T03:11:36.918Z,101286.97
2023-02-03T03:14:08.432Z,101276.31
2023-02-03T03:16:39.134Z,101267.72
2023-02-03T03:19:11.489Z,101254.81
2023-02-03T03:21:49.393Z,101250.56
2023-02-03T03:24:20.305Z,101247.59
2023-02-03T03:26:52.444Z,101237.09
2023-02-03T03:29:30.074Z,101221.09
2023-02-03T03:31:57.029Z,101226.63
2023-02-03T03:34:23.537Z,101214.72
2023-02-03T03:37:06.843Z,101210.81
2023-02-03T03:39:42.528Z,101191.63
2023-02-03T03:42:32.019Z,101200.22
2023-02-03T03:45:18.272Z,101217.81
2023-02-03T03:48:04.999Z,101218.03
2023-02-03T03:50:37.346Z,101205.91
2023-02-03T03:53:06.759Z,101198.47
2023-02-03T03:55:35.397Z,101199.84
2023-02-03T03:58:12.241Z,101199.63
2023-02-03T04:00:43.905Z,101196.41
2023-02-03T04:03:17.791Z,101198.25
2023-02-03T04:05:44.395Z,101194.63
2023-02-03T04:08:10.813Z,101188.59
2023-02-03T04:10:39.868Z,101182.19
2023-02-03T04:13:07.918Z,101175.81
2023-02-03T04:15:35.072Z,101166.97
2023-02-03T04:18:02.347Z,101168.19
2023-02-03T04:20:30.087Z,101160.66
2023-02-03T04:22:56.942Z,101155.13
2023-02-03T04:25:23.917Z,101141.31
2023-02-03T04:27:50.748Z,101142.09
2023-02-03T04:30:18.380Z,101139.00
2023-02-03T04:32:46.282Z,101133.34
2023-02-03T04:35:13.371Z,101123.63
2023-02-03T04:37:40.209Z,101106.19
2023-02-03T04:40:07.423Z,101108.16
2023-02-03T04:42:34.142Z,101100.34
2023-02-03T04:45:00.532Z,101093.56
2023-02-03T04:47:26.928Z,101091.53
2023-02-03T04:49:53.361Z,101071.06
2023-02-03T04:52:19.783Z,101075.03
2023-02-03T04:54:46.171Z,101062.59
2023-02-03T04:57:12.563Z,101063.19
2023-02-03T04:59:38.928Z,101056.94
2023-02-03T05:02:05.829Z,101054.28
2023-02-03T05:04:32.512Z,101062.47
2023-02-03T05:06:58.900Z,101062.69
2023-02-03T05:09:25.958Z,101064.81
2023-02-03T05:11:52.901Z,101075.84
2023-02-03T05:14:19.866Z,101067.97
2023-02-03T05:16:46.849Z,101049.97
2023-02-03T05:19:13.636Z,101043.41
2023-02-03T05:21:40.181Z,101043.41
2023-02-03T05:24:07.884Z,101042.53
2023-02-03T05:26:35.410Z,101030.41
2023-02-03T05:29:02.118Z,101026.41
2023-02-03T05:31:28.575Z,101021.19
2023-02-03T05:33:55.378Z,101022.88
2023-02-03T05:36:21.863Z,101014.97
2023-02-03T05:38:48.267Z,101023.91
2023-02-03T05:41:33.155Z,101015.09
2023-02-03T05:43:59.541Z,101004.91
2023-02-03T05:46:26.356Z,101009.34
2023-02-03T05:48:52.745Z,101007.75
2023-02-03T05:51:19.148Z,100994.28
2023-02-03T05:53:45.580Z,100987.97
2023-02-03T05:56:12.037Z,100984.41
2023-02-03T05:58:38.463Z,100984.25
2023-02-03T06:01:04.907Z,100970.94
2023-02-03T06:03:31.356Z,100965.63
2023-02-03T06:05:58.909Z,100962.94
2023-02-03T06:08:28.506Z,100946.81
2023-02-03T06:11:00.247Z,100947.41
2023-02-03T06:13:27.008Z,100943.19
2023-02-03T06:15:53.495Z,100926.91
2023-02-03T06:18:20.056Z,100927.25
2023-02-03T06:20:46.504Z,100927.50
2023-02-03T06:23:12.962Z,100923.25
2023-02-03T06:25:39.373Z,100925.97
2023-02-03T06:28:05.849Z,100924.09
2023-02-03T06:30:41.330Z,100925.03
2023-02-03T06:33:08.130Z,100928.66
2023-02-03T06:35:34.717Z,100927.47
2023-02-03T06:38:01.115Z,100920.38
2023-02-03T06:40:27.988Z,100925.59
2023-02-03T06:42:54.669Z,100928.97
2023-02-03T06:45:21.156Z,100925.34
2023-02-03T06:47:47.618Z,100917.63
2023-02-03T06:50:16.196Z,100906.00
2023-02-03T06:52:42.695Z,100901.91
2023-02-03T06:55:09.469Z,100902.69
2023-02-03T06:57:35.891Z,100896.78
2023-02-03T07:00:02.511Z,100895.19
2023-02-03T07:02:28.995Z,100883.47
2023-02-03T07:04:55.444Z,100887.72
2023-02-03T07:07:21.864Z,100886.38
2023-02-03T07:09:48.258Z,100878.84
2023-02-03T07:12:14.710Z,100873.59
2023-02-03T07:14:41.109Z,100869.97
2023-02-03T07:17:07.531Z,100876.31
2023-02-03T07:19:33.925Z,100871.81
2023-02-03T07:22:00.345Z,100872.47
2023-02-03T07:24:30.259Z,100855.81
2023-02-03T07:26:56.948Z,100849.34
2023-02-03T07:29:23.424Z,100845.25
2023-02-03T07:31:49.906Z,100831.53
2023-02-03T07:34:16.404Z,100819.03
2023-02-03T07:36:42.831Z,100827.69
2023-02-03T07:39:09.201Z,100816.25
2023-02-03T07:41:35.687Z,100817.41
2023-02-03T07:44:02.076Z,100814.84
2023-02-03T07:46:28.566Z,100806.28
2023-02-03T07:48:54.998Z,100808.84
2023-02-03T07:51:21.396Z,100798.50
2023-02-03T07:53:47.786Z,100799.91
2023-02-03T07:56:14.258Z,100789.31
2023-02-03T07:58:40.711Z,100788.78
2023-02-03T08:01:15.673Z,100782.91
2023-02-03T08:03:43.223Z,100788.50
2023-02-03T08:06:10.073Z,100778.28
2023-02-03T08:08:36.512Z,100766.56
2023-02-03T08:11:02.938Z,100760.38
2023-02-03T08:13:29.319Z,100754.31
2023-02-03T08:15:55.727Z,100749.03
2023-02-03T08:18:22.537Z,100745.63
2023-02-03T08:20:49.468Z,100750.97
2023-02-03T08:23:16.023Z,100751.00
2023-02-03T08:25:42.542Z,100751.81
2023-02-03T08:28:09.068Z,100748.69
2023-02-03T08:30:35.563Z,100744.34
2023-02-03T08:33:02.087Z,100728.13
2023-02-03T08:35:28.824Z,100741.81
2023-02-03T08:37:55.554Z,100732.63
2023-02-03T08:40:22.013Z,100722.06
2023-02-03T08:42:48.459Z,100718.19
2023-02-03T08:45:14.916Z,100721.53
2023-02-03T08:47:41.345Z,100708.16
2023-02-03T08:50:09.162Z,100717.34
2023-02-03T08:52:35.829Z,100712.66
2023-02-03T08:55:02.307Z,100702.59
2023-02-03T08:57:32.846Z,100701.00
2023-02-03T08:59:59.265Z,100687.88
2023-02-03T09:02:25.684Z,100682.84
2023-02-03T09:04:52.188Z,100681.75
2023-02-03T09:07:18.917Z,100693.72
2023-02-03T09:09:45.351Z,100690.72
2023-02-03T09:12:12.990Z,100690.72
2023-02-03T09:14:39.524Z,100681.53
2023-02-03T09:17:08.211Z,100676.53
2023-02-03T09:19:36.501Z,100674.28
2023-02-03T09:22:03.355Z,100670.38
2023-02-03T09:24:29.977Z,100667.34
2023-02-03T09:26:57.221Z,100666.75
2023-02-03T09:29:23.593Z,100661.53
2023-02-03T09:31:52.723Z,100659.88
2023-02-03T09:34:20.534Z,100646.25
2023-02-03T09:36:47.478Z,100646.78
2023-02-03T09:39:13.987Z,100637.94
2023-02-03T09:41:51.415Z,100650.47
2023-02-03T09:44:25.060Z,100637.38
2023-02-03T09:46:57.124Z,100626.78
2023-02-03T09:49:32.555Z,100625.41
2023-02-03T09:52:17.623Z,100633.78
2023-02-03T09:54:56.948Z,100618.78
2023-02-03T09:57:26.407Z,100615.13
2023-02-03T09:59:56.202Z,100611.53
2023-02-03T10:02:37.371Z,100614.03
2023-02-03T10:05:30.686Z,100605.97
2023-02-03T10:08:19.738Z,100599.28
2023-02-03T10:11:24.175Z,100593.44
2023-02-03T10:14:02.868Z,100565.59
2023-02-03T10:16:35.738Z,100546.63
2023-02-03T10:19:11.212Z,100531.63
2023-02-03T10:21:43.183Z,100533.84
2023-02-03T10:24:15.341Z,100534.16
2023-02-03T10:26:42.469Z,100550.56
2023-02-03T10:29:21.326Z,100551.16
2023-02-03T10:31:48.354Z,100545.84
2023-02-03T10:34:17.184Z,100547.53
2023-02-03T10:36:52.453Z,100557.03
2023-02-03T10:39:35.611Z,100542.28
2023-02-03T10:42:04.247Z,100562.59
2023-02-03T10:44:39.419Z,100568.75
2023-02-03T10:47:21.778Z,100580.75
2023-02-03T10:49:51.133Z,100574.03
2023-02-03T10:52:28.866Z,100630.91
2023-02-03T10:54:56.475Z,100650.38
2023-02-03T10:57:23.073Z,100654.84
2023-02-03T10:59:49.929Z,100643.63
2023-02-03T11:02:29.393Z,100637.75
2023-02-03T11:05:17.384Z,100653.91
2023-02-03T11:07:45.103Z,100649.75
2023-02-03T11:10:36.040Z,100632.91
2023-02-03T11:13:25.743Z,100665.44
2023-02-03T11:16:03.049Z,100645.94
2023-02-03T11:18:52.624Z,100652.03
2023-02-03T11:21:25.709Z,100654.00
2023-02-03T11:23:56.250Z,100647.88
2023-02-03T11:26:27.539Z,100639.22
2023-02-03T11:28:58.681Z,100637.53
2023-02-03T11:31:28.751Z,100637.84
2023-02-03T11:33:58.935Z,100642.03
2023-02-03T11:36:27.371Z,100636.16
2023-02-03T11:39:09.492Z,100633.97
2023-02-03T11:41:40.154Z,100642.34
2023-02-03T11:44:21.679Z,100640.94
2023-02-03T11:46:57.685Z,100645.41
2023-02-03T11:49:34.418Z,100647.41
2023-02-03T11:52:17.611Z,100643.00
2023-02-03T11:55:32.622Z,100650.81
2023-02-03T11:58:25.905Z,100657.50
2023-02-03T12:01:08.630Z,100650.84
2023-02-03T12:04:08.057Z,100648.34
2023-02-03T12:07:03.262Z,100639.13
2023-02-03T12:09:55.368Z,100639.78
2023-02-03T12:12:21.704Z,100643.16
2023-02-03T12:14:58.510Z,100644.03
2023-02-03T12:17:56.018Z,100638.19
2023-02-03T12:20:43.513Z,100644.06
2023-02-03T12:23:25.440Z,100645.22
2023-02-03T12:26:10.515Z,100647.44
2023-02-03T12:28:50.039Z,100618.16
2023-02-03T12:31:27.416Z,100639.34
2023-02-03T12:34:01.649Z,100630.94
2023-02-03T12:36:32.837Z,100645.47
2023-02-03T12:39:20.336Z,100649.13
2023-02-03T12:41:55.088Z,100623.19
2023-02-03T12:44:40.133Z,100647.22
2023-02-03T12:47:26.524Z,100634.91
2023-02-03T12:50:09.506Z,100654.44
2023-02-03T12:52:51.276Z,100640.22
2023-02-03T12:55:25.578Z,100648.88
2023-02-03T12:58:00.724Z,100639.38
2023-02-03T13:00:46.036Z,100674.78
2023-02-03T13:03:21.823Z,100726.56
2023-02-03T13:06:10.893Z,100766.28
2023-02-03T13:08:41.703Z,100791.28
2023-02-03T13:11:27.660Z,100803.19
2023-02-03T13:14:04.543Z,100805.84
2023-02-03T13:16:37.642Z,100795.28
2023-02-03T13:19:13.525Z,100798.75
2023-02-03T13:21:40.020Z,100815.28
2023-02-03T13:24:07.034Z,100814.44
2023-02-03T13:26:33.368Z,100800.19
2023-02-03T13:28:59.739Z,100816.69
2023-02-03T13:31:40.905Z,100808.41
2023-02-03T13:34:31.940Z,100797.25
2023-02-03T13:37:11.731Z,100773.59
2023-02-03T13:39:53.213Z,100772.81
2023-02-03T13:42:24.921Z,100773.00
2023-02-03T13:44:57.039Z,100775.69
2023-02-03T13:47:29.567Z,100768.97
2023-02-03T13:50:01.209Z,100763.41
2023-02-03T13:52:34.195Z,100770.47
2023-02-03T13:55:01.565Z,100760.00
2023-02-03T13:57:37.585Z,100764.94
2023-02-03T14:00:27.283Z,100755.47
2023-02-03T14:02:56.036Z,100751.63
2023-02-03T14:06:01.695Z,100733.06
2023-02-03T14:08:28.144Z,100723.09
2023-02-03T14:11:32.220Z,100744.63
2023-02-03T14:14:07.512Z,100739.84
2023-02-03T14:16:35.625Z,100726.06
2023-02-03T14:19:02.559Z,100725.59
2023-02-03T14:21:38.809Z,100726.94
2023-02-03T14:24:16.657Z,100727.31
2023-02-03T14:26:51.975Z,100723.59
2023-02-03T14:29:30.746Z,100723.19
2023-02-03T14:32:08.892Z,100720.25
2023-02-03T14:34:50.331Z,100749.03
2023-02-03T14:37:26.668Z,100741.88
2023-02-03T14:39:55.827Z,100740.44
2023-02-03T14:42:45.580Z,100750.50
2023-02-03T14:45:33.522Z,100737.72
2023-02-03T14:48:48.268Z,100752.16
2023-02-03T14:51:39.455Z,100765.50
2023-02-03T14:54:24.650Z,100761.31
2023-02-03T14:57:26.595Z,100770.78
2023-02-03T15:00:02.029Z,100773.28
2023-02-03T15:02:31.096Z,100767.16
2023-02-03T15:05:17.543Z,100777.44
2023-02-03T15:07:49.501Z,100788.06
2023-02-03T15:10:38.917Z,100783.09
2023-02-03T15:13:05.320Z,100797.19
2023-02-03T15:15:38.872Z,100814.19
2023-02-03T15:18:28.301Z,100814.72
2023-02-03T15:20:56.236Z,100820.09
2023-02-03T15:23:28.704Z,100837.91
2023-02-03T15:26:02.338Z,100828.41
2023-02-03T15:28:30.167Z,100835.94
2023-02-03T15:31:20.577Z,100831.97
2023-02-03T15:33:49.925Z,100848.13
2023-02-03T15:36:22.965Z,100843.09
2023-02-03T15:39:04.868Z,100851.97
2023-02-03T15:41:31.457Z,100849.50
2023-02-03T15:44:06.572Z,100868.16
2023-02-03T15:46:40.967Z,100866.50
2023-02-03T15:49:18.023Z,100848.59
2023-02-03T15:51:51.761Z,100871.41
2023-02-03T15:54:31.664Z,100870.28
2023-02-03T15:57:07.354Z,100869.97
2023-02-03T15:59:42.391Z,100865.16
2023-02-03T16:02:29.752Z,100863.00
2023-02-03T16:04:56.888Z,100852.38
2023-02-03T16:07:25.761Z,100876.28
2023-02-03T16:09:53.553Z,100882.94
2023-02-03T16:12:33.138Z,100881.34
2023-02-03T16:15:01.923Z,100891.56
2023-02-03T16:17:35.540Z,100886.97
2023-02-03T16:20:11.028Z,100901.38
2023-02-03T16:22:46.707Z,100898.03
2023-02-03T16:25:23.819Z,100893.56
2023-02-03T16:28:31.793Z,100912.41
2023-02-03T16:31:29.203Z,100914.38
2023-02-03T16:34:14.179Z,100895.94
2023-02-03T16:37:01.520Z,100908.50
2023-02-03T16:39:47.019Z,100902.75
2023-02-03T16:42:41.404Z,100916.91
2023-02-03T16:45:34.386Z,100909.47
2023-02-03T16:48:20.881Z,100917.44
2023-02-03T16:50:51.804Z,100911.34
2023-02-03T16:53:27.501Z,100915.56
2023-02-03T16:55:56.395Z,100912.84
2023-02-03T16:58:23.453Z,100913.16
2023-02-03T17:00:52.029Z,100905.94
2023-02-03T17:03:21.442Z,100908.94
2023-02-03T17:05:49.457Z,100907.91
2023-02-03T17:08:17.662Z,100914.81
2023-02-03T17:10:44.871Z,100936.53
2023-02-03T17:13:12.447Z,100922.63
2023-02-03T17:15:41.138Z,100915.53
2023-02-03T17:18:07.872Z,100918.78
2023-02-03T17:20:34.540Z,100922.09
2023-02-03T17:23:00.925Z,100919.56
2023-02-03T17:25:27.642Z,100938.81
2023-02-03T17:27:54.372Z,100943.19
2023-02-03T17:30:21.254Z,100958.22
2023-02-03T17:32:47.642Z,100937.44
2023-02-03T17:35:14.040Z,100949.59
2023-02-03T17:37:40.486Z,100950.78
2023-02-03T17:54:04.809Z,100958.91
2023-02-03T17:56:31.591Z,100953.75
2023-02-03T17:59:00.701Z,100966.28
2023-02-03T18:01:27.477Z,100963.78
2023-02-03T18:04:02.756Z,100959.34
2023-02-03T18:06:31.405Z,100969.34
2023-02-03T18:09:02.354Z,100961.84
2023-02-03T18:11:30.908Z,100972.97
2023-02-03T18:13:57.782Z,100977.13
2023-02-03T18:16:28.874Z,100952.59
2023-02-03T18:18:56.079Z,100976.28
2023-02-03T18:21:24.332Z,100966.50
2023-02-03T18:23:51.185Z,100972.22
2023-02-03T18:26:19.684Z,100968.25
2023-02-03T18:28:46.376Z,100970.78
2023-02-03T18:31:17.413Z,100964.63
2023-02-03T18:33:46.163Z,100975.50
2023-02-03T18:36:13.402Z,100961.59
2023-02-03T18:38:41.634Z,100990.44
2023-02-03T18:41:11.643Z,100976.88
2023-02-03T18:43:38.039Z,100966.56
2023-02-03T18:46:09.495Z,100983.19
2023-02-03T18:48:36.507Z,100986.25
2023-02-03T18:51:02.965Z,100973.19
2023-02-03T18:53:29.726Z,100998.22
2023-02-03T18:55:56.107Z,101004.09
2023-02-03T18:58:22.494Z,101011.44
2023-02-03T19:00:48.949Z,101000.22
2023-02-03T19:03:15.335Z,101014.66
2023-02-03T19:05:42.928Z,101025.53
2023-02-03T19:08:09.313Z,101034.34
2023-02-03T19:10:36.275Z,101024.44
2023-02-03T19:13:02.674Z,101039.22
2023-02-03T19:15:29.110Z,101035.72
2023-02-03T19:17:55.541Z,101035.38
2023-02-03T19:20:21.957Z,101026.34
2023-02-03T19:22:48.337Z,101030.31
2023-02-03T19:25:14.788Z,101037.72
2023-02-03T19:27:41.279Z,101031.38
2023-02-03T19:30:08.460Z,101036.97
2023-02-03T19:32:34.856Z,101031.22
2023-02-03T19:35:01.276Z,101038.19
2023-02-03T19:37:27.717Z,101049.78
2023-02-03T19:39:54.091Z,101053.94
2023-02-03T19:42:20.525Z,101053.50
2023-02-03T19:44:46.919Z,101065.28
2023-02-03T19:47:13.466Z,101061.84
2023-02-03T19:49:39.868Z,101072.56
2023-02-03T19:52:08.944Z,101063.28
2023-02-03T19:54:35.759Z,101055.88
2023-02-03T19:57:02.303Z,101058.56
2023-02-03T19:59:28.697Z,101047.53
2023-02-03T20:01:56.634Z,101063.69
2023-02-03T20:04:24.864Z,101076.94
2023-02-03T20:06:51.257Z,101065.13
2023-02-03T20:09:17.627Z,101072.47
2023-02-03T20:11:44.020Z,101086.72
2023-02-03T20:14:12.441Z,101095.41
2023-02-03T20:16:38.856Z,101089.50
2023-02-03T20:19:05.242Z,101078.13
2023-02-03T20:21:31.677Z,101091.19
2023-02-03T20:23:58.124Z,101109.22
2023-02-03T20:26:24.525Z,101085.09
2023-02-03T20:28:50.933Z,101088.81
2023-02-03T20:31:17.431Z,101091.25
2023-02-03T20:33:43.986Z,101099.59
2023-02-03T20:36:11.507Z,101104.91
2023-02-03T20:38:38.007Z,101106.16
2023-02-03T20:41:08.804Z,101129.94
2023-02-03T20:43:35.253Z,101122.81
2023-02-03T20:46:01.688Z,101122.25
2023-02-03T20:48:28.170Z,101126.78
2023-02-03T20:50:54.629Z,101126.00
2023-02-03T20:53:25.757Z,101135.44
2023-02-03T20:55:57.187Z,101137.06
2023-02-03T20:58:27.876Z,101135.44
2023-02-03T21:00:57.214Z,101155.84
2023-02-03T21:03:43.103Z,101158.78
2023-02-03T21:06:14.699Z,101155.25
2023-02-03T21:08:41.206Z,101169.31
2023-02-03T21:11:13.420Z,101172.19
2023-02-03T21:13:41.303Z,101188.78
2023-02-03T21:16:24.177Z,101214.50
2023-02-03T21:18:52.895Z,101218.50
2023-02-03T21:21:39.370Z,101244.38
2023-02-03T21:24:36.535Z,101315.44
2023-02-03T21:27:31.718Z,101282.59
2023-02-03T21:30:21.938Z,101320.41
2023-02-03T21:32:48.377Z,101315.09
2023-02-03T21:35:28.683Z,101330.44
2023-02-03T21:38:02.020Z,101348.53
2023-02-03T21:40:31.285Z,101362.19
2023-02-03T21:42:59.523Z,101364.47
2023-02-03T21:45:34.224Z,101394.69
2023-02-03T21:48:02.644Z,101391.25
2023-02-03T21:50:32.684Z,101402.03
2023-02-03T21:53:05.415Z,101423.19
2023-02-03T21:55:31.832Z,101420.44
2023-02-03T21:57:58.335Z,101425.44
2023-02-03T22:00:35.297Z,101434.28
2023-02-03T22:03:02.218Z,101456.03
2023-02-03T22:05:28.673Z,101452.34
2023-02-03T22:07:55.182Z,101457.88
2023-02-03T22:10:30.735Z,101469.59
2023-02-03T22:12:57.296Z,101482.53
2023-02-03T22:15:23.732Z,101485.22
2023-02-03T22:17:50.947Z,101487.91
2023-02-03T22:20:17.556Z,101505.09
2023-02-03T22:22:43.968Z,101513.03
2023-02-03T22:25:10.435Z,101512.78
2023-02-03T22:27:36.960Z,101522.31
2023-02-03T22:30:09.004Z,101532.59
2023-02-03T22:32:35.409Z,101535.03
2023-02-03T22:35:01.836Z,101550.69
2023-02-03T22:37:28.354Z,101568.41
2023-02-03T22:39:54.800Z,101587.44
2023-02-03T22:42:22.323Z,101591.06
2023-02-03T22:44:48.764Z,101591.56
2023-02-03T22:47:15.174Z,101607.22
2023-02-03T22:49:41.560Z,101607.28
2023-02-03T22:52:07.951Z,101608.53
2023-02-03T22:54:36.739Z,101631.59
2023-02-03T22:57:03.218Z,101640.94
2023-02-03T22:59:29.617Z,101652.53
2023-02-03T23:01:56.025Z,101659.94
2023-02-03T23:04:23.085Z,101666.19
2023-02-03T23:06:49.514Z,101674.44
2023-02-03T23:09:15.995Z,101687.66
2023-02-03T23:11:42.422Z,101692.78
2023-02-03T23:14:10.092Z,101694.88
2023-02-03T23:16:36.937Z,101707.25
2023-02-03T23:19:04.012Z,101721.53
2023-02-03T23:21:30.492Z,101725.38
2023-02-03T23:23:56.906Z,101735.22
2023-02-03T23:26:23.288Z,101738.16
2023-02-03T23:28:49.893Z,101752.72
2023-02-03T23:31:16.576Z,101759.72
2023-02-03T23:34:03.060Z,101763.09
2023-02-03T23:36:29.442Z,101767.59
2023-02-03T23:38:55.824Z,101782.94
2023-02-03T23:41:22.206Z,101779.78
2023-02-03T23:43:48.630Z,101792.97
2023-02-03T23:46:15.128Z,101804.31
2023-02-03T23:48:41.547Z,101826.03
2023-02-03T23:51:08.107Z,101828.16
2023-02-03T23:53:34.515Z,101843.09
2023-02-03T23:56:00.915Z,101830.53
2023-02-03T23:58:28.029Z,101856.50
